sensor_id;sensor_type;location;lat;lon;timestamp;temperature;humidity
43665;DHT22;29263;48.172;11.484;2022-12-20T00:02:24;0.40;99.90
43665;DHT22;29263;48.172;11.484;2022-12-20T00:04:50;0.30;99.90
43665;DHT22;29263;48.172;11.484;2022-12-20T00:07:15;0.30;99.90
43665;DHT22;29263;48.172;11.484;2022-12-20T00:09:41;0.30;99.90
43665;DHT22;29263;48.172;11.484;2022-12-20T00:12:07;0.30;99.90
43665;DHT22;29263;48.172;11.484;2022-12-20T00:14:32;0.30;99.90
43665;DHT22;29263;48.172;11.484;2022-12-20T00:16:58;0.30;99.90
43665;DHT22;29263;48.172;11.484;2022-12-20T00:19:24;0.30;99.90
43665;DHT22;29263;48.172;11.484;2022-12-20T00:21:49;0.20;99.90
43665;DHT22;29263;48.172;11.484;2022-12-20T00:24:15;0.20;99.90
43665;DHT22;29263;48.172;11.484;2022-12-20T00:26:40;0.20;99.90
43665;DHT22;29263;48.172;11.484;2022-12-20T00:29:06;0.20;99.90
43665;DHT22;29263;48.172;11.484;2022-12-20T00:31:32;0.30;99.90
43665;DHT22;29263;48.172;11.484;2022-12-20T00:33:59;0.30;99.90
43665;DHT22;29263;48.172;11.484;2022-12-20T00:36:27;0.30;99.90
43665;DHT22;29263;48.172;11.484;2022-12-20T00:38:55;0.30;99.90
43665;DHT22;29263;48.172;11.484;2022-12-20T00:41:24;0.30;99.90
43665;DHT22;29263;48.172;11.484;2022-12-20T00:43:50;0.30;99.90
43665;DHT22;29263;48.172;11.484;2022-12-20T00:46:17;0.30;99.90
43665;DHT22;29263;48.172;11.484;2022-12-20T00:48:43;0.30;99.90
43665;DHT22;29263;48.172;11.484;2022-12-20T00:51:12;0.30;99.90
43665;DHT22;29263;48.172;11.484;2022-12-20T00:53:39;0.30;99.90
43665;DHT22;29263;48.172;11.484;2022-12-20T00:56:05;0.30;99.90
43665;DHT22;29263;48.172;11.484;2022-12-20T00:58:36;0.30;99.90
43665;DHT22;29263;48.172;11.484;2022-12-20T01:01:03;0.30;99.90
43665;DHT22;29263;48.172;11.484;2022-12-20T01:03:29;0.30;99.90
43665;DHT22;29263;48.172;11.484;2022-12-20T01:05:58;0.30;99.90
43665;DHT22;29263;48.172;11.484;2022-12-20T01:08:25;0.30;99.90
43665;DHT22;29263;48.172;11.484;2022-12-20T01:11:07;0.30;99.90
43665;DHT22;29263;48.172;11.484;2022-12-20T01:13:35;0.30;99.90
43665;DHT22;29263;48.172;11.484;2022-12-20T01:16:10;0.40;99.90
43665;DHT22;29263;48.172;11.484;2022-12-20T01:18:36;0.40;99.90
43665;DHT22;29263;48.172;11.484;2022-12-20T01:21:03;0.40;99.90
43665;DHT22;29263;48.172;11.484;2022-12-20T01:23:29;0.40;99.90
43665;DHT22;29263;48.172;11.484;2022-12-20T01:26:00;0.40;99.90
43665;DHT22;29263;48.172;11.484;2022-12-20T01:28:26;0.30;99.90
43665;DHT22;29263;48.172;11.484;2022-12-20T01:30:52;0.30;99.90
43665;DHT22;29263;48.172;11.484;2022-12-20T01:33:18;0.30;99.90
43665;DHT22;29263;48.172;11.484;2022-12-20T01:36:04;0.30;99.90
43665;DHT22;29263;48.172;11.484;2022-12-20T01:38:31;0.30;99.90
43665;DHT22;29263;48.172;11.484;2022-12-20T01:40:57;0.30;99.90
43665;DHT22;29263;48.172;11.484;2022-12-20T01:43:25;0.30;99.90
43665;DHT22;29263;48.172;11.484;2022-12-20T01:45:54;0.30;99.90
43665;DHT22;29263;48.172;11.484;2022-12-20T01:48:24;0.30;99.90
43665;DHT22;29263;48.172;11.484;2022-12-20T01:50:51;0.30;99.90
43665;DHT22;29263;48.172;11.484;2022-12-20T01:53:18;0.30;99.90
43665;DHT22;29263;48.172;11.484;2022-12-20T01:55:46;0.40;99.90
43665;DHT22;29263;48.172;11.484;2022-12-20T01:58:13;0.40;99.90
43665;DHT22;29263;48.172;11.484;2022-12-20T02:00:40;0.40;99.90
43665;DHT22;29263;48.172;11.484;2022-12-20T02:03:08;0.40;99.90
43665;DHT22;29263;48.172;11.484;2022-12-20T02:05:38;0.40;99.90
43665;DHT22;29263;48.172;11.484;2022-12-20T02:08:04;0.40;99.90
43665;DHT22;29263;48.172;11.484;2022-12-20T02:15:56;0.40;99.90
43665;DHT22;29263;48.172;11.484;2022-12-20T02:18:24;0.40;99.90
43665;DHT22;29263;48.172;11.484;2022-12-20T02:21:08;0.40;99.90
43665;DHT22;29263;48.172;11.484;2022-12-20T02:29:24;0.40;99.90
43665;DHT22;29263;48.172;11.484;2022-12-20T02:34:35;0.40;99.90
43665;DHT22;29263;48.172;11.484;2022-12-20T02:37:01;0.40;99.90
43665;DHT22;29263;48.172;11.484;2022-12-20T02:39:28;0.40;99.90
43665;DHT22;29263;48.172;11.484;2022-12-20T02:42:05;0.40;99.90
43665;DHT22;29263;48.172;11.484;2022-12-20T02:44:34;0.40;99.90
43665;DHT22;29263;48.172;11.484;2022-12-20T02:47:56;0.40;99.90
43665;DHT22;29263;48.172;11.484;2022-12-20T02:50:31;0.40;99.90
43665;DHT22;29263;48.172;11.484;2022-12-20T02:52:59;0.40;99.90
43665;DHT22;29263;48.172;11.484;2022-12-20T02:55:45;0.40;99.90
43665;DHT22;29263;48.172;11.484;2022-12-20T02:58:22;0.40;99.90
43665;DHT22;29263;48.172;11.484;2022-12-20T03:00:51;0.40;99.90
43665;DHT22;29263;48.172;11.484;2022-12-20T03:03:18;0.40;99.90
43665;DHT22;29263;48.172;11.484;2022-12-20T03:05:54;0.40;99.90
43665;DHT22;29263;48.172;11.484;2022-12-20T03:08:21;0.40;99.90
43665;DHT22;29263;48.172;11.484;2022-12-20T03:10:48;0.40;99.90
43665;DHT22;29263;48.172;11.484;2022-12-20T03:13:15;0.40;99.90
43665;DHT22;29263;48.172;11.484;2022-12-20T03:15:40;0.40;99.90
43665;DHT22;29263;48.172;11.484;2022-12-20T03:18:06;0.40;99.90
43665;DHT22;29263;48.172;11.484;2022-12-20T03:20:32;0.40;99.90
43665;DHT22;29263;48.172;11.484;2022-12-20T03:22:58;0.40;99.90
43665;DHT22;29263;48.172;11.484;2022-12-20T03:25:24;0.40;99.90
43665;DHT22;29263;48.172;11.484;2022-12-20T03:27:49;0.40;99.90
43665;DHT22;29263;48.172;11.484;2022-12-20T03:30:15;0.40;99.90
43665;DHT22;29263;48.172;11.484;2022-12-20T03:32:41;0.50;99.90
43665;DHT22;29263;48.172;11.484;2022-12-20T03:35:07;0.50;99.90
43665;DHT22;29263;48.172;11.484;2022-12-20T03:37:33;0.50;99.90
43665;DHT22;29263;48.172;11.484;2022-12-20T03:39:58;0.50;99.90
43665;DHT22;29263;48.172;11.484;2022-12-20T03:42:24;0.50;99.90
43665;DHT22;29263;48.172;11.484;2022-12-20T03:44:50;0.60;99.90
43665;DHT22;29263;48.172;11.484;2022-12-20T03:47:15;0.60;99.90
43665;DHT22;29263;48.172;11.484;2022-12-20T03:49:41;0.60;99.90
43665;DHT22;29263;48.172;11.484;2022-12-20T03:52:08;0.60;99.90
43665;DHT22;29263;48.172;11.484;2022-12-20T03:54:34;0.60;99.90
43665;DHT22;29263;48.172;11.484;2022-12-20T03:56:59;0.60;99.90
43665;DHT22;29263;48.172;11.484;2022-12-20T03:59:25;0.60;99.90
43665;DHT22;29263;48.172;11.484;2022-12-20T04:01:50;0.60;99.90
43665;DHT22;29263;48.172;11.484;2022-12-20T04:04:16;0.50;99.90
43665;DHT22;29263;48.172;11.484;2022-12-20T04:06:42;0.60;99.90
43665;DHT22;29263;48.172;11.484;2022-12-20T04:09:07;0.60;99.90
43665;DHT22;29263;48.172;11.484;2022-12-20T04:11:33;0.60;99.90
43665;DHT22;29263;48.172;11.484;2022-12-20T04:13:59;0.60;99.90
43665;DHT22;29263;48.172;11.484;2022-12-20T04:16:27;0.70;99.90
43665;DHT22;29263;48.172;11.484;2022-12-20T04:18:52;0.70;99.90
43665;DHT22;29263;48.172;11.484;2022-12-20T04:21:23;0.70;99.90
43665;DHT22;29263;48.172;11.484;2022-12-20T04:23:49;0.70;99.90
43665;DHT22;29263;48.172;11.484;2022-12-20T04:26:15;0.70;99.90
43665;DHT22;29263;48.172;11.484;2022-12-20T04:28:41;0.70;99.90
43665;DHT22;29263;48.172;11.484;2022-12-20T04:31:07;0.80;99.90
43665;DHT22;29263;48.172;11.484;2022-12-20T04:33:32;0.80;99.90
43665;DHT22;29263;48.172;11.484;2022-12-20T04:35:58;0.80;99.90
43665;DHT22;29263;48.172;11.484;2022-12-20T04:38:24;0.80;99.90
43665;DHT22;29263;48.172;11.484;2022-12-20T04:40:51;0.80;99.90
43665;DHT22;29263;48.172;11.484;2022-12-20T04:43:17;0.80;99.90
43665;DHT22;29263;48.172;11.484;2022-12-20T04:45:44;0.80;99.90
43665;DHT22;29263;48.172;11.484;2022-12-20T04:48:11;0.80;99.90
43665;DHT22;29263;48.172;11.484;2022-12-20T04:50:37;0.80;99.90
43665;DHT22;29263;48.172;11.484;2022-12-20T04:53:02;0.80;99.90
43665;DHT22;29263;48.172;11.484;2022-12-20T04:55:47;0.80;99.90
43665;DHT22;29263;48.172;11.484;2022-12-20T04:58:12;0.80;99.90
43665;DHT22;29263;48.172;11.484;2022-12-20T05:00:38;0.80;99.90
43665;DHT22;29263;48.172;11.484;2022-12-20T05:03:03;0.80;99.90
43665;DHT22;29263;48.172;11.484;2022-12-20T05:05:29;0.80;99.90
43665;DHT22;29263;48.172;11.484;2022-12-20T05:07:55;0.80;99.90
43665;DHT22;29263;48.172;11.484;2022-12-20T05:10:21;0.80;99.90
43665;DHT22;29263;48.172;11.484;2022-12-20T05:12:46;0.80;99.90
43665;DHT22;29263;48.172;11.484;2022-12-20T05:15:12;0.80;99.90
43665;DHT22;29263;48.172;11.484;2022-12-20T05:17:37;0.80;99.90
43665;DHT22;29263;48.172;11.484;2022-12-20T05:20:05;0.80;99.90
43665;DHT22;29263;48.172;11.484;2022-12-20T05:22:30;0.80;99.90
43665;DHT22;29263;48.172;11.484;2022-12-20T05:25:15;0.80;99.90
43665;DHT22;29263;48.172;11.484;2022-12-20T05:27:59;0.80;99.90
43665;DHT22;29263;48.172;11.484;2022-12-20T05:30:25;0.80;99.90
43665;DHT22;29263;48.172;11.484;2022-12-20T05:32:51;0.80;99.90
43665;DHT22;29263;48.172;11.484;2022-12-20T05:35:17;0.80;99.90
43665;DHT22;29263;48.172;11.484;2022-12-20T05:37:43;0.80;99.90
43665;DHT22;29263;48.172;11.484;2022-12-20T05:40:09;0.80;99.90
43665;DHT22;29263;48.172;11.484;2022-12-20T05:42:35;0.80;99.90
43665;DHT22;29263;48.172;11.484;2022-12-20T05:45:01;0.80;99.90
43665;DHT22;29263;48.172;11.484;2022-12-20T05:47:27;0.70;99.90
43665;DHT22;29263;48.172;11.484;2022-12-20T05:49:53;0.70;99.90
43665;DHT22;29263;48.172;11.484;2022-12-20T05:52:20;0.70;99.90
43665;DHT22;29263;48.172;11.484;2022-12-20T05:54:45;0.70;99.90
43665;DHT22;29263;48.172;11.484;2022-12-20T05:57:11;0.70;99.90
43665;DHT22;29263;48.172;11.484;2022-12-20T05:59:37;0.70;99.90
43665;DHT22;29263;48.172;11.484;2022-12-20T06:02:03;0.70;99.90
43665;DHT22;29263;48.172;11.484;2022-12-20T06:04:30;0.70;99.90
43665;DHT22;29263;48.172;11.484;2022-12-20T06:06:56;0.70;99.90
43665;DHT22;29263;48.172;11.484;2022-12-20T06:09:21;0.80;99.90
43665;DHT22;29263;48.172;11.484;2022-12-20T06:11:47;0.70;99.90
43665;DHT22;29263;48.172;11.484;2022-12-20T06:14:12;0.80;99.90
43665;DHT22;29263;48.172;11.484;2022-12-20T06:16:38;0.80;99.90
43665;DHT22;29263;48.172;11.484;2022-12-20T06:19:04;0.80;99.90
43665;DHT22;29263;48.172;11.484;2022-12-20T06:21:29;0.80;99.90
43665;DHT22;29263;48.172;11.484;2022-12-20T06:23:56;0.80;99.90
43665;DHT22;29263;48.172;11.484;2022-12-20T06:26:22;0.80;99.90
43665;DHT22;29263;48.172;11.484;2022-12-20T06:28:48;0.90;99.90
43665;DHT22;29263;48.172;11.484;2022-12-20T06:31:17;0.90;99.90
43665;DHT22;29263;48.172;11.484;2022-12-20T06:33:43;0.90;99.90
43665;DHT22;29263;48.172;11.484;2022-12-20T06:36:09;1.00;99.90
43665;DHT22;29263;48.172;11.484;2022-12-20T06:38:34;0.90;99.90
43665;DHT22;29263;48.172;11.484;2022-12-20T06:41:00;0.90;99.90
43665;DHT22;29263;48.172;11.484;2022-12-20T06:43:26;0.90;99.90
43665;DHT22;29263;48.172;11.484;2022-12-20T06:45:52;0.90;99.90
43665;DHT22;29263;48.172;11.484;2022-12-20T06:48:17;0.90;99.90
43665;DHT22;29263;48.172;11.484;2022-12-20T06:50:47;0.90;99.90
43665;DHT22;29263;48.172;11.484;2022-12-20T06:53:13;0.90;99.90
43665;DHT22;29263;48.172;11.484;2022-12-20T06:55:38;0.90;99.90
43665;DHT22;29263;48.172;11.484;2022-12-20T06:58:04;0.90;99.90
43665;DHT22;29263;48.172;11.484;2022-12-20T07:00:30;0.90;99.90
43665;DHT22;29263;48.172;11.484;2022-12-20T07:02:56;0.90;99.90
43665;DHT22;29263;48.172;11.484;2022-12-20T07:05:21;0.90;99.90
43665;DHT22;29263;48.172;11.484;2022-12-20T07:07:47;0.90;99.90
43665;DHT22;29263;48.172;11.484;2022-12-20T07:10:13;0.90;99.90
43665;DHT22;29263;48.172;11.484;2022-12-20T07:12:38;0.90;99.90
43665;DHT22;29263;48.172;11.484;2022-12-20T07:15:05;0.90;99.90
43665;DHT22;29263;48.172;11.484;2022-12-20T07:17:32;0.90;99.90
43665;DHT22;29263;48.172;11.484;2022-12-20T07:19:58;0.90;99.90
43665;DHT22;29263;48.172;11.484;2022-12-20T07:22:23;0.90;99.90
43665;DHT22;29263;48.172;11.484;2022-12-20T07:24:49;0.90;99.90
43665;DHT22;29263;48.172;11.484;2022-12-20T07:27:14;1.00;99.90
43665;DHT22;29263;48.172;11.484;2022-12-20T07:29:40;0.90;99.90
43665;DHT22;29263;48.172;11.484;2022-12-20T07:32:07;1.00;99.90
43665;DHT22;29263;48.172;11.484;2022-12-20T07:34:32;1.00;99.90
43665;DHT22;29263;48.172;11.484;2022-12-20T07:36:58;1.00;99.90
43665;DHT22;29263;48.172;11.484;2022-12-20T07:39:24;1.10;99.90
43665;DHT22;29263;48.172;11.484;2022-12-20T07:41:53;1.10;99.90
43665;DHT22;29263;48.172;11.484;2022-12-20T07:44:19;1.10;99.90
43665;DHT22;29263;48.172;11.484;2022-12-20T07:46:45;1.20;99.90
43665;DHT22;29263;48.172;11.484;2022-12-20T07:49:11;1.20;99.90
43665;DHT22;29263;48.172;11.484;2022-12-20T07:51:44;1.20;99.90
43665;DHT22;29263;48.172;11.484;2022-12-20T07:54:11;1.20;99.90
43665;DHT22;29263;48.172;11.484;2022-12-20T07:56:42;1.30;99.90
43665;DHT22;29263;48.172;11.484;2022-12-20T07:59:12;1.30;99.90
43665;DHT22;29263;48.172;11.484;2022-12-20T08:01:40;1.30;99.90
43665;DHT22;29263;48.172;11.484;2022-12-20T08:04:12;1.40;99.90
43665;DHT22;29263;48.172;11.484;2022-12-20T08:06:39;1.40;99.90
43665;DHT22;29263;48.172;11.484;2022-12-20T08:09:06;1.40;99.90
43665;DHT22;29263;48.172;11.484;2022-12-20T08:11:33;1.40;99.90
43665;DHT22;29263;48.172;11.484;2022-12-20T08:13:59;1.40;99.90
43665;DHT22;29263;48.172;11.484;2022-12-20T08:16:25;1.50;99.90
43665;DHT22;29263;48.172;11.484;2022-12-20T08:18:51;1.50;99.90
43665;DHT22;29263;48.172;11.484;2022-12-20T08:21:17;1.50;99.90
43665;DHT22;29263;48.172;11.484;2022-12-20T08:23:43;1.50;99.90
43665;DHT22;29263;48.172;11.484;2022-12-20T08:26:09;1.60;99.90
43665;DHT22;29263;48.172;11.484;2022-12-20T08:28:34;1.60;99.90
43665;DHT22;29263;48.172;11.484;2022-12-20T08:31:01;1.70;99.90
43665;DHT22;29263;48.172;11.484;2022-12-20T08:33:27;1.60;99.90
43665;DHT22;29263;48.172;11.484;2022-12-20T08:35:57;1.70;99.90
43665;DHT22;29263;48.172;11.484;2022-12-20T08:38:25;1.70;99.90
43665;DHT22;29263;48.172;11.484;2022-12-20T08:40:51;1.70;99.90
43665;DHT22;29263;48.172;11.484;2022-12-20T08:43:16;1.70;99.90
43665;DHT22;29263;48.172;11.484;2022-12-20T08:45:42;1.80;99.90
43665;DHT22;29263;48.172;11.484;2022-12-20T08:48:07;1.80;99.90
43665;DHT22;29263;48.172;11.484;2022-12-20T08:50:33;1.80;99.90
43665;DHT22;29263;48.172;11.484;2022-12-20T08:52:59;1.80;99.90
43665;DHT22;29263;48.172;11.484;2022-12-20T08:55:24;1.80;99.90
43665;DHT22;29263;48.172;11.484;2022-12-20T08:57:50;1.90;99.90
43665;DHT22;29263;48.172;11.484;2022-12-20T09:00:16;1.90;99.90
43665;DHT22;29263;48.172;11.484;2022-12-20T09:02:41;1.90;99.90
43665;DHT22;29263;48.172;11.484;2022-12-20T09:05:07;1.90;99.90
43665;DHT22;29263;48.172;11.484;2022-12-20T09:07:33;1.90;99.90
43665;DHT22;29263;48.172;11.484;2022-12-20T09:09:58;2.00;99.90
43665;DHT22;29263;48.172;11.484;2022-12-20T09:12:24;2.00;99.90
43665;DHT22;29263;48.172;11.484;2022-12-20T09:14:50;2.10;99.90
43665;DHT22;29263;48.172;11.484;2022-12-20T09:17:15;2.10;99.90
43665;DHT22;29263;48.172;11.484;2022-12-20T09:19:41;2.20;99.90
43665;DHT22;29263;48.172;11.484;2022-12-20T09:22:06;2.30;99.90
43665;DHT22;29263;48.172;11.484;2022-12-20T09:24:33;2.30;99.90
43665;DHT22;29263;48.172;11.484;2022-12-20T09:26:58;2.40;99.90
43665;DHT22;29263;48.172;11.484;2022-12-20T09:29:24;2.50;99.90
43665;DHT22;29263;48.172;11.484;2022-12-20T09:31:49;2.50;99.90
43665;DHT22;29263;48.172;11.484;2022-12-20T09:34:15;2.50;99.90
43665;DHT22;29263;48.172;11.484;2022-12-20T09:36:41;2.50;99.90
43665;DHT22;29263;48.172;11.484;2022-12-20T09:39:07;2.50;99.90
43665;DHT22;29263;48.172;11.484;2022-12-20T09:41:37;2.40;99.90
43665;DHT22;29263;48.172;11.484;2022-12-20T09:44:24;2.50;99.90
43665;DHT22;29263;48.172;11.484;2022-12-20T09:46:56;2.60;99.90
43665;DHT22;29263;48.172;11.484;2022-12-20T09:49:27;2.70;99.90
43665;DHT22;29263;48.172;11.484;2022-12-20T09:52:06;2.60;99.90
43665;DHT22;29263;48.172;11.484;2022-12-20T09:57:29;2.70;99.90
43665;DHT22;29263;48.172;11.484;2022-12-20T09:59:57;2.80;99.90
43665;DHT22;29263;48.172;11.484;2022-12-20T10:02:24;2.80;99.90
43665;DHT22;29263;48.172;11.484;2022-12-20T10:04:51;2.90;99.90
43665;DHT22;29263;48.172;11.484;2022-12-20T10:10:31;3.00;99.90
43665;DHT22;29263;48.172;11.484;2022-12-20T10:13:53;3.10;99.90
43665;DHT22;29263;48.172;11.484;2022-12-20T10:16:41;3.10;99.90
43665;DHT22;29263;48.172;11.484;2022-12-20T10:24:26;3.30;99.90
43665;DHT22;29263;48.172;11.484;2022-12-20T10:26:52;3.40;99.90
43665;DHT22;29263;48.172;11.484;2022-12-20T10:29:18;3.30;99.90
43665;DHT22;29263;48.172;11.484;2022-12-20T10:31:48;3.40;99.90
43665;DHT22;29263;48.172;11.484;2022-12-20T10:34:13;3.40;99.90
43665;DHT22;29263;48.172;11.484;2022-12-20T10:36:39;3.40;99.90
43665;DHT22;29263;48.172;11.484;2022-12-20T10:39:08;3.50;99.90
43665;DHT22;29263;48.172;11.484;2022-12-20T10:44:21;3.60;99.90
43665;DHT22;29263;48.172;11.484;2022-12-20T10:46:51;3.60;99.90
43665;DHT22;29263;48.172;11.484;2022-12-20T10:49:37;3.60;99.90
43665;DHT22;29263;48.172;11.484;2022-12-20T10:54:43;3.70;99.90
43665;DHT22;29263;48.172;11.484;2022-12-20T10:57:25;3.70;99.90
43665;DHT22;29263;48.172;11.484;2022-12-20T10:59:59;3.70;99.90
43665;DHT22;29263;48.172;11.484;2022-12-20T11:07:34;3.70;99.90
43665;DHT22;29263;48.172;11.484;2022-12-20T11:10:07;3.70;99.90
43665;DHT22;29263;48.172;11.484;2022-12-20T11:12:58;3.70;99.90
43665;DHT22;29263;48.172;11.484;2022-12-20T11:15:33;3.70;99.90
43665;DHT22;29263;48.172;11.484;2022-12-20T11:18:05;3.80;99.90
43665;DHT22;29263;48.172;11.484;2022-12-20T11:42:42;4.50;99.90
43665;DHT22;29263;48.172;11.484;2022-12-20T11:50:52;4.70;99.90
43665;DHT22;29263;48.172;11.484;2022-12-20T11:53:41;4.80;99.90
43665;DHT22;29263;48.172;11.484;2022-12-20T11:56:21;4.90;99.90
43665;DHT22;29263;48.172;11.484;2022-12-20T11:58:59;5.00;99.90
43665;DHT22;29263;48.172;11.484;2022-12-20T12:01:42;5.10;99.90
43665;DHT22;29263;48.172;11.484;2022-12-20T12:04:15;5.20;99.90
43665;DHT22;29263;48.172;11.484;2022-12-20T12:06:57;5.20;99.90
43665;DHT22;29263;48.172;11.484;2022-12-20T12:09:35;5.10;99.90
43665;DHT22;29263;48.172;11.484;2022-12-20T12:12:32;5.20;99.90
43665;DHT22;29263;48.172;11.484;2022-12-20T12:15:10;5.20;99.90
43665;DHT22;29263;48.172;11.484;2022-12-20T12:18:05;5.20;99.90
43665;DHT22;29263;48.172;11.484;2022-12-20T12:20:45;5.20;99.90
43665;DHT22;29263;48.172;11.484;2022-12-20T12:23:28;5.10;99.90
43665;DHT22;29263;48.172;11.484;2022-12-20T12:25:57;5.10;99.90
43665;DHT22;29263;48.172;11.484;2022-12-20T12:28:23;5.00;99.90
43665;DHT22;29263;48.172;11.484;2022-12-20T12:31:14;4.90;99.90
43665;DHT22;29263;48.172;11.484;2022-12-20T12:33:47;5.00;99.90
43665;DHT22;29263;48.172;11.484;2022-12-20T12:47:49;5.00;99.90
43665;DHT22;29263;48.172;11.484;2022-12-20T12:50:43;4.90;99.90
43665;DHT22;29263;48.172;11.484;2022-12-20T12:53:17;4.90;99.90
43665;DHT22;29263;48.172;11.484;2022-12-20T12:55:50;4.90;99.90
43665;DHT22;29263;48.172;11.484;2022-12-20T13:08:50;4.70;99.90
43665;DHT22;29263;48.172;11.484;2022-12-20T13:11:40;4.70;99.90
43665;DHT22;29263;48.172;11.484;2022-12-20T13:40:42;4.40;99.90
43665;DHT22;29263;48.172;11.484;2022-12-20T13:45:46;4.30;99.90
43665;DHT22;29263;48.172;11.484;2022-12-20T13:48:15;4.30;99.90
43665;DHT22;29263;48.172;11.484;2022-12-20T13:50:50;4.20;99.90
43665;DHT22;29263;48.172;11.484;2022-12-20T13:53:20;4.10;99.90
43665;DHT22;29263;48.172;11.484;2022-12-20T13:55:46;4.20;99.90
43665;DHT22;29263;48.172;11.484;2022-12-20T13:58:23;4.10;99.90
43665;DHT22;29263;48.172;11.484;2022-12-20T14:00:50;4.10;99.90
43665;DHT22;29263;48.172;11.484;2022-12-20T14:03:27;4.00;99.90
43665;DHT22;29263;48.172;11.484;2022-12-20T14:06:03;4.00;99.90
43665;DHT22;29263;48.172;11.484;2022-12-20T14:08:36;4.10;99.90
43665;DHT22;29263;48.172;11.484;2022-12-20T14:11:10;4.30;99.90
43665;DHT22;29263;48.172;11.484;2022-12-20T14:13:36;4.50;99.90
43665;DHT22;29263;48.172;11.484;2022-12-20T14:16:16;4.60;99.90
43665;DHT22;29263;48.172;11.484;2022-12-20T14:18:47;4.60;99.90
43665;DHT22;29263;48.172;11.484;2022-12-20T14:21:13;4.60;99.90
43665;DHT22;29263;48.172;11.484;2022-12-20T14:23:40;4.60;99.90
43665;DHT22;29263;48.172;11.484;2022-12-20T14:26:10;4.60;99.90
43665;DHT22;29263;48.172;11.484;2022-12-20T14:28:43;4.50;99.90
43665;DHT22;29263;48.172;11.484;2022-12-20T14:31:39;4.40;99.90
43665;DHT22;29263;48.172;11.484;2022-12-20T14:34:13;4.30;99.90
43665;DHT22;29263;48.172;11.484;2022-12-20T14:36:47;4.30;99.90
43665;DHT22;29263;48.172;11.484;2022-12-20T14:44:34;4.20;99.90
43665;DHT22;29263;48.172;11.484;2022-12-20T14:47:22;4.10;99.90
43665;DHT22;29263;48.172;11.484;2022-12-20T14:49:54;4.00;99.90
43665;DHT22;29263;48.172;11.484;2022-12-20T14:52:32;4.00;99.90
43665;DHT22;29263;48.172;11.484;2022-12-20T14:55:22;3.90;99.90
43665;DHT22;29263;48.172;11.484;2022-12-20T14:57:49;3.80;99.90
43665;DHT22;29263;48.172;11.484;2022-12-20T15:00:23;3.80;99.90
43665;DHT22;29263;48.172;11.484;2022-12-20T15:11:00;3.50;99.90
43665;DHT22;29263;48.172;11.484;2022-12-20T15:13:31;3.40;99.90
43665;DHT22;29263;48.172;11.484;2022-12-20T15:15:58;3.30;99.90
43665;DHT22;29263;48.172;11.484;2022-12-20T15:18:24;3.30;99.90
43665;DHT22;29263;48.172;11.484;2022-12-20T15:23:29;3.20;99.90
43665;DHT22;29263;48.172;11.484;2022-12-20T15:25:55;3.20;99.90
43665;DHT22;29263;48.172;11.484;2022-12-20T15:28:23;3.10;99.90
43665;DHT22;29263;48.172;11.484;2022-12-20T15:30:50;3.20;99.90
43665;DHT22;29263;48.172;11.484;2022-12-20T15:33:20;3.10;99.90
43665;DHT22;29263;48.172;11.484;2022-12-20T15:35:46;3.10;99.90
43665;DHT22;29263;48.172;11.484;2022-12-20T15:38:14;3.00;99.90
43665;DHT22;29263;48.172;11.484;2022-12-20T15:40:42;3.00;99.90
43665;DHT22;29263;48.172;11.484;2022-12-20T15:43:20;3.00;99.90
43665;DHT22;29263;48.172;11.484;2022-12-20T15:45:51;2.90;99.90
43665;DHT22;29263;48.172;11.484;2022-12-20T15:48:20;2.90;99.90
43665;DHT22;29263;48.172;11.484;2022-12-20T15:50:54;2.90;99.90
43665;DHT22;29263;48.172;11.484;2022-12-20T15:53:27;2.90;99.90
43665;DHT22;29263;48.172;11.484;2022-12-20T15:55:54;2.90;99.90
43665;DHT22;29263;48.172;11.484;2022-12-20T15:58:22;2.90;99.90
43665;DHT22;29263;48.172;11.484;2022-12-20T16:00:48;2.80;99.90
43665;DHT22;29263;48.172;11.484;2022-12-20T16:03:19;2.80;99.90
43665;DHT22;29263;48.172;11.484;2022-12-20T16:05:46;2.80;99.90
43665;DHT22;29263;48.172;11.484;2022-12-20T16:08:12;2.80;99.90
43665;DHT22;29263;48.172;11.484;2022-12-20T16:10:38;2.80;99.90
43665;DHT22;29263;48.172;11.484;2022-12-20T16:13:03;2.80;99.90
43665;DHT22;29263;48.172;11.484;2022-12-20T16:15:29;2.80;99.90
43665;DHT22;29263;48.172;11.484;2022-12-20T16:17:55;2.70;99.90
43665;DHT22;29263;48.172;11.484;2022-12-20T16:20:21;2.70;99.90
43665;DHT22;29263;48.172;11.484;2022-12-20T16:22:46;2.70;99.90
43665;DHT22;29263;48.172;11.484;2022-12-20T16:25:41;2.70;99.90
43665;DHT22;29263;48.172;11.484;2022-12-20T16:28:07;2.70;99.90
43665;DHT22;29263;48.172;11.484;2022-12-20T16:30:32;2.70;99.90
43665;DHT22;29263;48.172;11.484;2022-12-20T16:32:59;2.70;99.90
43665;DHT22;29263;48.172;11.484;2022-12-20T16:35:32;2.70;99.90
43665;DHT22;29263;48.172;11.484;2022-12-20T16:37:59;2.70;99.90
43665;DHT22;29263;48.172;11.484;2022-12-20T16:40:27;2.70;99.90
43665;DHT22;29263;48.172;11.484;2022-12-20T16:42:53;2.60;99.90
43665;DHT22;29263;48.172;11.484;2022-12-20T16:45:22;2.60;99.90
43665;DHT22;29263;48.172;11.484;2022-12-20T16:47:48;2.60;99.90
43665;DHT22;29263;48.172;11.484;2022-12-20T16:50:15;2.60;99.90
43665;DHT22;29263;48.172;11.484;2022-12-20T16:52:41;2.70;99.90
43665;DHT22;29263;48.172;11.484;2022-12-20T16:55:13;2.60;99.90
43665;DHT22;29263;48.172;11.484;2022-12-20T16:57:39;2.60;99.90
43665;DHT22;29263;48.172;11.484;2022-12-20T17:00:06;2.60;99.90
43665;DHT22;29263;48.172;11.484;2022-12-20T17:02:33;2.60;99.90
43665;DHT22;29263;48.172;11.484;2022-12-20T17:04:59;2.60;99.90
43665;DHT22;29263;48.172;11.484;2022-12-20T17:07:25;2.60;99.90
43665;DHT22;29263;48.172;11.484;2022-12-20T17:09:51;2.60;99.90
43665;DHT22;29263;48.172;11.484;2022-12-20T17:12:19;2.50;99.90
43665;DHT22;29263;48.172;11.484;2022-12-20T17:14:45;2.60;99.90
43665;DHT22;29263;48.172;11.484;2022-12-20T17:17:12;2.50;99.90
43665;DHT22;29263;48.172;11.484;2022-12-20T17:19:37;2.50;99.90
43665;DHT22;29263;48.172;11.484;2022-12-20T17:22:04;2.50;99.90
43665;DHT22;29263;48.172;11.484;2022-12-20T17:24:30;2.60;99.90
43665;DHT22;29263;48.172;11.484;2022-12-20T17:26:55;2.60;99.90
43665;DHT22;29263;48.172;11.484;2022-12-20T17:29:21;2.60;99.90
43665;DHT22;29263;48.172;11.484;2022-12-20T17:31:47;2.60;99.90
43665;DHT22;29263;48.172;11.484;2022-12-20T17:36:42;2.50;99.90
43665;DHT22;29263;48.172;11.484;2022-12-20T17:39:07;2.50;99.90
43665;DHT22;29263;48.172;11.484;2022-12-20T17:41:33;2.50;99.90
43665;DHT22;29263;48.172;11.484;2022-12-20T17:44:00;2.40;99.90
43665;DHT22;29263;48.172;11.484;2022-12-20T17:46:27;2.40;99.90
43665;DHT22;29263;48.172;11.484;2022-12-20T17:48:53;2.40;99.90
43665;DHT22;29263;48.172;11.484;2022-12-20T17:51:20;2.40;99.90
43665;DHT22;29263;48.172;11.484;2022-12-20T17:53:47;2.40;99.90
43665;DHT22;29263;48.172;11.484;2022-12-20T17:56:15;2.40;99.90